| time (UTC) | temp F | wind direction | speed MPH | gust MPH | rain 1hr in | rain 24hr in | rain mn in | humidity % | barometer mb |
| 20260510043052 | 48 | 0 | 0.0 | 2.0 | 0.00 | 0.30 | 0.00 | 94 | 1009.0 |
| 20260510043024 | 48 | 134 | 0.0 | 2.0 | 0.00 | 0.30 | 0.00 | 94 | 1009.7 |
| 20260510041544 | 48 | 132 | 0.0 | 2.0 | 0.00 | 0.30 | 0.00 | 94 | 1009.2 |
| 20260510041529 | 48 | 200 | 0.0 | 2.0 | 0.00 | 0.30 | 0.00 | 94 | 1009.7 |
| 20260510040048 | 48 | 279 | 0.0 | 2.0 | 0.00 | 0.30 | 0.00 | 94 | 1009.1 |
| 20260510040024 | 48 | 279 | 0.0 | 2.0 | 0.00 | 0.30 | 0.00 | 94 | 1009.6 |
| 20260510034547 | 48 | 278 | 0.0 | 2.0 | 0.00 | 0.30 | 0.30 | 93 | 1009.0 |
| 20260510034526 | 48 | 278 | 0.0 | 2.0 | 0.00 | 0.30 | 0.30 | 93 | 1009.4 |
| 20260510033048 | 48 | 240 | 0.0 | 2.0 | 0.00 | 0.30 | 0.30 | 93 | 1008.7 |
| 20260510033023 | 49 | 240 | 0.0 | 2.0 | 0.00 | 0.30 | 0.30 | 93 | 1009.4 |
| 20260510031540 | 49 | 0 | 0.0 | 2.0 | 0.00 | 0.30 | 0.30 | 92 | 1008.9 |
| 20260510031522 | 49 | 258 | 0.0 | 2.0 | 0.00 | 0.30 | 0.30 | 92 | 1009.4 |
| 20260510030045 | 50 | 258 | 0.0 | 2.0 | 0.00 | 0.30 | 0.30 | 92 | 1008.9 |
| 20260510030032 | 50 | 258 | 0.0 | 2.0 | 0.00 | 0.30 | 0.30 | 92 | 1009.5 |
| 20260510024545 | 51 | 258 | 1.0 | 3.0 | 0.00 | 0.30 | 0.30 | 92 | 1008.7 |
| 20260510024532 | 51 | 257 | 1.0 | 3.0 | 0.00 | 0.30 | 0.30 | 92 | 1009.1 |
| 20260510023048 | 51 | 0 | 0.0 | 2.0 | 0.00 | 0.30 | 0.30 | 91 | 1008.9 |
| 20260510023020 | 51 | 248 | 0.0 | 2.0 | 0.00 | 0.30 | 0.30 | 91 | 1009.5 |
| 20260510021548 | 52 | 0 | 0.0 | 2.0 | 0.00 | 0.30 | 0.30 | 90 | 1008.8 |
| 20260510021532 | 52 | 248 | 1.0 | 2.0 | 0.00 | 0.30 | 0.30 | 90 | 1009.3 |
| 20260510020047 | 52 | 0 | 1.0 | 5.0 | 0.00 | 0.30 | 0.30 | 90 | 1008.8 |
| 20260510020024 | 52 | 140 | 2.0 | 5.0 | 0.00 | 0.30 | 0.30 | 90 | 1009.3 |
| 20260510014546 | 52 | 0 | 0.0 | 2.0 | 0.00 | 0.30 | 0.30 | 92 | 1009.0 |
| 20260510014521 | 52 | 240 | 0.0 | 2.0 | 0.00 | 0.30 | 0.30 | 92 | 1009.4 |
| 20260510013045 | 52 | 0 | 0.0 | 0.0 | 0.00 | 0.30 | 0.30 | 93 | 1008.8 |
| 20260510013024 | 52 | 116 | 0.0 | 0.0 | 0.00 | 0.30 | 0.30 | 93 | 1009.3 |
| 20260510011548 | 52 | 0 | 0.0 | 0.0 | 0.00 | 0.30 | 0.30 | 93 | 1008.8 |
| 20260510011522 | 52 | 116 | 0.0 | 0.0 | 0.00 | 0.30 | 0.30 | 93 | 1009.4 |
| 20260510010042 | 52 | 0 | 0.0 | 1.0 | 0.00 | 0.30 | 0.30 | 92 | 1008.5 |
| 20260510010018 | 53 | 116 | 0.0 | 1.0 | 0.00 | 0.30 | 0.30 | 92 | 1009.1 |
| 20260510004548 | 53 | 116 | 0.0 | 2.0 | 0.00 | 0.30 | 0.30 | 92 | 1008.6 |
| 20260510004516 | 53 | 116 | 0.0 | 2.0 | 0.00 | 0.30 | 0.30 | 92 | 1009.2 |
| 20260510003101 | 53 | 0 | 0.0 | 2.0 | 0.00 | 0.30 | 0.30 | 91 | 1008.2 |
| 20260510003024 | 53 | 116 | 0.0 | 2.0 | 0.00 | 0.30 | 0.30 | 91 | 1008.9 |
| 20260510001544 | 54 | 0 | 0.0 | 2.0 | 0.00 | 0.30 | 0.30 | 90 | 1008.2 |
| 20260510001516 | 54 | 116 | 0.0 | 0.0 | 0.00 | 0.30 | 0.30 | 90 | 1008.8 |
| 20260510000044 | 54 | 0 | 0.0 | 2.0 | 0.00 | 0.30 | 0.30 | 88 | 1008.2 |
| 20260510000020 | 54 | 116 | 0.0 | 2.0 | 0.00 | 0.30 | 0.30 | 88 | 1008.8 |
| 20260509234548 | 55 | 0 | 0.0 | 1.0 | 0.00 | 0.30 | 0.30 | 88 | 1007.8 |
| 20260509234532 | 55 | 116 | 0.0 | 1.0 | 0.00 | 0.30 | 0.30 | 88 | 1008.4 |
| 20260509233040 | 55 | 116 | 0.0 | 2.0 | 0.00 | 0.30 | 0.30 | 86 | 1007.5 |
| 20260509233018 | 55 | 116 | 0.0 | 2.0 | 0.00 | 0.30 | 0.30 | 86 | 1008.0 |
| 20260509231554 | 56 | 0 | 0.0 | 2.0 | 0.00 | 0.30 | 0.30 | 85 | 1007.5 |
| 20260509231520 | 56 | 126 | 0.0 | 0.0 | 0.00 | 0.30 | 0.30 | 85 | 1008.0 |
| 20260509230051 | 56 | 0 | 0.0 | 0.0 | 0.00 | 0.30 | 0.30 | 84 | 1007.4 |
| 20260509230020 | 56 | 126 | 0.0 | 0.0 | 0.00 | 0.30 | 0.30 | 84 | 1007.9 |
| 20260509224549 | 56 | 0 | 0.0 | 2.0 | 0.00 | 0.30 | 0.30 | 84 | 1007.4 |
| 20260509224520 | 56 | 126 | 0.0 | 2.0 | 0.00 | 0.30 | 0.30 | 84 | 1008.0 |
| 20260509223047 | 56 | 0 | 0.0 | 2.0 | 0.00 | 0.30 | 0.30 | 86 | 1007.3 |
| 20260509223020 | 56 | 126 | 0.0 | 2.0 | 0.00 | 0.30 | 0.30 | 86 | 1007.9 |
| 20260509221547 | 56 | 0 | 0.0 | 2.0 | 0.00 | 0.30 | 0.30 | 86 | 1007.5 |
| 20260509221522 | 56 | 126 | 0.0 | 2.0 | 0.00 | 0.30 | 0.30 | 86 | 1008.1 |
| 20260509220039 | 56 | 82 | 0.0 | 2.0 | 0.00 | 0.30 | 0.30 | 85 | 1007.6 |
| 20260509220022 | 56 | 82 | 0.0 | 2.0 | 0.00 | 0.30 | 0.30 | 85 | 1008.3 |
| 20260509214542 | 56 | 117 | 0.0 | 2.0 | 0.00 | 0.30 | 0.30 | 85 | 1007.8 |
| 20260509214526 | 56 | 147 | 0.0 | 2.0 | 0.00 | 0.30 | 0.30 | 85 | 1008.6 |
| 20260509213041 | 55 | 0 | 0.0 | 2.0 | 0.00 | 0.30 | 0.30 | 86 | 1007.9 |
| 20260509213024 | 55 | 136 | 0.0 | 2.0 | 0.00 | 0.30 | 0.30 | 86 | 1008.7 |
| 20260509211544 | 54 | 0 | 0.0 | 0.0 | 0.00 | 0.30 | 0.30 | 88 | 1007.9 |
| 20260509211523 | 54 | 136 | 0.0 | 0.0 | 0.00 | 0.30 | 0.30 | 88 | 1008.7 |
| 20260509210049 | 54 | 0 | 0.0 | 2.0 | 0.00 | 0.30 | 0.30 | 90 | 1008.0 |
| 20260509210029 | 54 | 136 | 0.0 | 2.0 | 0.00 | 0.30 | 0.30 | 90 | 1008.9 |
| 20260509204542 | 53 | 0 | 0.0 | 0.0 | 0.00 | 0.30 | 0.30 | 90 | 1008.0 |
| 20260509204525 | 53 | 139 | 0.0 | 0.0 | 0.00 | 0.30 | 0.30 | 90 | 1008.9 |
| 20260509203052 | 53 | 0 | 0.0 | 0.0 | 0.00 | 0.30 | 0.30 | 89 | 1008.3 |
| 20260509203024 | 53 | 141 | 0.0 | 0.0 | 0.00 | 0.30 | 0.30 | 89 | 1009.1 |
| 20260509201539 | 53 | 0 | 0.0 | 2.0 | 0.00 | 0.30 | 0.30 | 90 | 1008.4 |
| 20260509201524 | 53 | 140 | 0.0 | 2.0 | 0.00 | 0.30 | 0.30 | 90 | 1009.3 |
| 20260509200038 | 52 | 0 | 0.0 | 4.0 | 0.01 | 0.30 | 0.30 | 90 | 1008.5 |
| 20260509200024 | 52 | 135 | 0.0 | 4.0 | 0.01 | 0.30 | 0.30 | 90 | 1009.3 |
| 20260509194542 | 52 | 0 | 0.0 | 4.0 | 0.01 | 0.30 | 0.30 | 91 | 1008.8 |
| 20260509194525 | 52 | 167 | 0.0 | 4.0 | 0.01 | 0.30 | 0.30 | 91 | 1009.4 |
| 20260509193041 | 52 | 0 | 0.0 | 3.0 | 0.01 | 0.30 | 0.30 | 92 | 1008.8 |
| 20260509193023 | 52 | 167 | 0.0 | 3.0 | 0.01 | 0.30 | 0.30 | 92 | 1009.6 |
| 20260509191544 | 51 | 197 | 1.0 | 4.0 | 0.01 | 0.30 | 0.30 | 91 | 1009.0 |
| 20260509191525 | 51 | 205 | 1.0 | 4.0 | 0.01 | 0.30 | 0.30 | 91 | 1009.8 |
| 20260509190041 | 52 | 180 | 0.0 | 4.0 | 0.00 | 0.29 | 0.29 | 91 | 1009.3 |
| 20260509190024 | 51 | 113 | 0.0 | 4.0 | 0.00 | 0.29 | 0.29 | 91 | 1010.0 |
| 20260509184549 | 52 | 165 | 1.0 | 3.0 | 0.00 | 0.29 | 0.29 | 91 | 1009.4 |
| 20260509184536 | 52 | 165 | 1.0 | 3.0 | 0.00 | 0.29 | 0.29 | 91 | 1010.0 |
| 20260509183042 | 51 | 140 | 0.0 | 1.0 | 0.01 | 0.29 | 0.29 | 91 | 1009.4 |
| 20260509183026 | 51 | 140 | 0.0 | 1.0 | 0.01 | 0.29 | 0.29 | 91 | 1010.1 |
| 20260509181603 | 51 | 136 | 0.0 | 2.0 | 0.01 | 0.29 | 0.29 | 91 | 1009.3 |
| 20260509181524 | 51 | 87 | 0.0 | 2.0 | 0.01 | 0.29 | 0.29 | 91 | 1010.1 |
| 20260509180108 | 51 | 129 | 0.0 | 3.0 | 0.02 | 0.29 | 0.29 | 92 | 1009.3 |
| 20260509180024 | 51 | 129 | 0.0 | 2.0 | 0.02 | 0.29 | 0.29 | 92 | 1010.0 |
| 20260509174550 | 51 | 211 | 1.0 | 3.0 | 0.03 | 0.29 | 0.29 | 94 | 1009.3 |
| 20260509174527 | 51 | 233 | 1.0 | 3.0 | 0.03 | 0.29 | 0.29 | 94 | 1009.9 |
| 20260509173054 | 50 | 0 | 1.0 | 2.0 | 0.03 | 0.28 | 0.28 | 94 | 1009.5 |
| 20260509173025 | 50 | 30 | 1.0 | 2.0 | 0.03 | 0.28 | 0.28 | 94 | 1010.0 |
| 20260509171551 | 49 | 30 | 0.0 | 2.0 | 0.04 | 0.28 | 0.28 | 94 | 1009.8 |
| 20260509171524 | 49 | 21 | 0.0 | 2.0 | 0.04 | 0.28 | 0.28 | 94 | 1010.3 |
| 20260509170051 | 49 | 0 | 0.0 | 2.0 | 0.04 | 0.27 | 0.27 | 94 | 1010.0 |
| 20260509170026 | 49 | 21 | 0.0 | 2.0 | 0.04 | 0.27 | 0.27 | 94 | 1010.5 |
| 20260509164540 | 48 | 22 | 0.0 | 2.0 | 0.04 | 0.26 | 0.26 | 94 | 1010.0 |
| 20260509164523 | 48 | 21 | 1.0 | 2.0 | 0.04 | 0.26 | 0.26 | 94 | 1010.6 |
| 20260509163039 | 48 | 53 | 0.0 | 2.0 | 0.04 | 0.25 | 0.25 | 94 | 1010.2 |
| 20260509163029 | 48 | 53 | 0.0 | 2.0 | 0.04 | 0.25 | 0.25 | 94 | 1010.8 |
| 20260509161558 | 47 | 111 | 0.0 | 2.0 | 0.04 | 0.24 | 0.24 | 94 | 1010.3 |
| 20260509161526 | 47 | 150 | 0.0 | 2.0 | 0.04 | 0.24 | 0.24 | 94 | 1010.9 |
| 20260509160051 | 47 | 153 | 0.0 | 2.0 | 0.04 | 0.23 | 0.23 | 93 | 1010.6 |
| 20260509160006 | 47 | 154 | 0.0 | 2.0 | 0.04 | 0.23 | 0.23 | 93 | 1011.2 |
| 20260509154553 | 46 | 0 | 0.0 | 2.0 | 0.05 | 0.22 | 0.22 | 93 | 1010.9 |
| 20260509154505 | 46 | 161 | 0.0 | 2.0 | 0.06 | 0.22 | 0.22 | 93 | 1011.4 |
| 20260509153040 | 46 | 0 | 0.0 | 2.0 | 0.06 | 0.21 | 0.21 | 93 | 1011.1 |
| 20260509153003 | 46 | 170 | 0.0 | 2.0 | 0.06 | 0.21 | 0.21 | 93 | 1011.6 |
| 20260509151558 | 45 | 0 | 0.0 | 2.0 | 0.06 | 0.20 | 0.20 | 93 | 1011.3 |
| 20260509151503 | 45 | 172 | 0.0 | 2.0 | 0.06 | 0.20 | 0.20 | 93 | 1011.8 |
| 20260509150038 | 45 | 171 | 0.0 | 2.0 | 0.06 | 0.19 | 0.19 | 93 | 1011.5 |
| 20260509150004 | 45 | 171 | 0.0 | 2.0 | 0.06 | 0.19 | 0.19 | 93 | 1012.0 |
| 20260509144544 | 45 | 0 | 0.0 | 2.0 | 0.05 | 0.17 | 0.17 | 93 | 1011.5 |
| 20260509144505 | 45 | 171 | 0.0 | 2.0 | 0.04 | 0.16 | 0.16 | 93 | 1011.9 |
| 20260509143046 | 44 | 0 | 0.0 | 2.0 | 0.04 | 0.15 | 0.15 | 93 | 1011.6 |
| 20260509143006 | 44 | 171 | 0.0 | 2.0 | 0.04 | 0.15 | 0.15 | 93 | 1012.0 |
| 20260509141545 | 44 | 188 | 0.0 | 2.0 | 0.03 | 0.14 | 0.14 | 93 | 1011.5 |
| 20260509141503 | 44 | 188 | 0.0 | 2.0 | 0.03 | 0.14 | 0.14 | 93 | 1012.0 |
| 20260509140038 | 44 | 54 | 0.0 | 1.0 | 0.03 | 0.13 | 0.13 | 94 | 1011.5 |
| 20260509140004 | 44 | 54 | 0.0 | 1.0 | 0.03 | 0.13 | 0.13 | 94 | 1011.9 |
| 20260509134545 | 43 | 0 | 0.0 | 0.0 | 0.04 | 0.12 | 0.12 | 94 | 1011.6 |
| 20260509134505 | 43 | 54 | 0.0 | 0.0 | 0.04 | 0.12 | 0.12 | 94 | 1012.1 |
| 20260509133058 | 43 | 0 | 0.0 | 0.0 | 0.04 | 0.11 | 0.11 | 94 | 1011.6 |
| 20260509133005 | 42 | 54 | 0.0 | 0.0 | 0.04 | 0.11 | 0.11 | 94 | 1012.1 |
| 20260509131541 | 42 | 0 | 0.0 | 0.0 | 0.05 | 0.11 | 0.11 | 94 | 1011.7 |
| 20260509131509 | 42 | 54 | 0.0 | 0.0 | 0.05 | 0.11 | 0.11 | 94 | 1012.1 |
| 20260509130040 | 42 | 0 | 0.0 | 2.0 | 0.05 | 0.10 | 0.10 | 94 | 1011.7 |
| 20260509130004 | 42 | 54 | 0.0 | 1.0 | 0.05 | 0.10 | 0.10 | 94 | 1012.2 |
| 20260509124548 | 41 | 0 | 0.0 | 2.0 | 0.03 | 0.08 | 0.08 | 94 | 1011.7 |
| 20260509124504 | 41 | 54 | 0.0 | 2.0 | 0.03 | 0.08 | 0.08 | 94 | 1012.2 |
| 20260509123040 | 41 | 0 | 0.0 | 2.0 | 0.03 | 0.07 | 0.07 | 93 | 1011.8 |
| 20260509123004 | 41 | 54 | 0.0 | 2.0 | 0.03 | 0.07 | 0.07 | 93 | 1012.3 |
| 20260509121549 | 41 | 0 | 0.0 | 0.0 | 0.02 | 0.06 | 0.06 | 93 | 1011.9 |
| 20260509121504 | 41 | 54 | 0.0 | 0.0 | 0.02 | 0.06 | 0.06 | 93 | 1012.4 |
| 20260509120043 | 41 | 0 | 0.0 | 2.0 | 0.01 | 0.05 | 0.05 | 93 | 1011.9 |
| 20260509120006 | 41 | 54 | 0.0 | 2.0 | 0.01 | 0.05 | 0.05 | 93 | 1012.3 |
| 20260509114540 | 40 | 54 | 0.0 | 2.0 | 0.02 | 0.05 | 0.05 | 93 | 1012.0 |
| 20260509114503 | 40 | 54 | 0.0 | 2.0 | 0.02 | 0.05 | 0.05 | 93 | 1012.4 |
| 20260509113050 | 40 | 0 | 0.0 | 2.0 | 0.01 | 0.04 | 0.04 | 93 | 1012.0 |
| 20260509113004 | 40 | 54 | 0.0 | 1.0 | 0.01 | 0.04 | 0.04 | 93 | 1012.4 |
| 20260509111539 | 40 | 0 | 0.0 | 1.0 | 0.01 | 0.04 | 0.04 | 93 | 1012.1 |
| 20260509111504 | 40 | 54 | 0.0 | 1.0 | 0.01 | 0.04 | 0.04 | 93 | 1012.4 |
| 20260509110047 | 40 | 0 | 0.0 | 2.0 | 0.01 | 0.04 | 0.04 | 93 | 1011.8 |
| 20260509110004 | 39 | 54 | 0.0 | 2.0 | 0.01 | 0.04 | 0.04 | 93 | 1012.2 |
| 20260509104559 | 39 | 0 | 0.0 | 2.0 | 0.00 | 0.03 | 0.03 | 93 | 1012.0 |
| 20260509104516 | 39 | 54 | 0.0 | 2.0 | 0.00 | 0.03 | 0.03 | 93 | 1012.4 |
| 20260509103043 | 39 | 0 | 0.0 | 0.0 | 0.01 | 0.03 | 0.03 | 92 | 1011.8 |
| 20260509103004 | 39 | 54 | 0.0 | 0.0 | 0.01 | 0.03 | 0.03 | 92 | 1012.3 |
| 20260509101540 | 39 | 0 | 0.0 | 2.0 | 0.01 | 0.03 | 0.03 | 92 | 1011.9 |
| 20260509101507 | 39 | 54 | 0.0 | 2.0 | 0.01 | 0.03 | 0.03 | 92 | 1012.3 |
| 20260509100041 | 39 | 0 | 0.0 | 2.0 | 0.01 | 0.03 | 0.03 | 92 | 1012.0 |
| 20260509100005 | 39 | 54 | 0.0 | 2.0 | 0.01 | 0.03 | 0.03 | 92 | 1012.4 |
| 20260509094546 | 39 | 0 | 0.0 | 2.0 | 0.02 | 0.03 | 0.03 | 91 | 1012.1 |
| 20260509094504 | 39 | 54 | 0.0 | 2.0 | 0.02 | 0.03 | 0.03 | 91 | 1012.6 |
| 20260509093042 | 39 | 0 | 0.0 | 2.0 | 0.02 | 0.02 | 0.02 | 91 | 1012.0 |
| 20260509093005 | 39 | 65 | 0.0 | 2.0 | 0.02 | 0.02 | 0.02 | 91 | 1012.5 |
| 20260509091544 | 39 | 65 | 0.0 | 2.0 | 0.02 | 0.02 | 0.02 | 90 | 1012.2 |
| 20260509091504 | 39 | 65 | 0.0 | 2.0 | 0.02 | 0.02 | 0.02 | 90 | 1012.7 |
| 20260509090056 | 39 | 0 | 0.0 | 2.0 | 0.02 | 0.02 | 0.02 | 89 | 1012.2 |
| 20260509090005 | 39 | 211 | 0.0 | 2.0 | 0.02 | 0.02 | 0.02 | 89 | 1012.7 |
| 20260509084548 | 39 | 211 | 0.0 | 2.0 | 0.01 | 0.01 | 0.01 | 88 | 1012.2 |
| 20260509084523 | 39 | 211 | 0.0 | 2.0 | 0.01 | 0.01 | 0.01 | 88 | 1012.8 |
| 20260509083050 | 39 | 122 | 0.0 | 2.0 | 0.00 | 0.00 | 0.00 | 86 | 1012.3 |
| 20260509083035 | 39 | 122 | 0.0 | 2.0 | 0.00 | 0.00 | 0.00 | 86 | 1013.0 |
| 20260509081550 | 39 | 146 | 0.0 | 2.0 | 0.00 | 0.00 | 0.00 | 86 | 1012.4 |
| 20260509081527 | 39 | 157 | 0.0 | 2.0 | 0.00 | 0.00 | 0.00 | 86 | 1013.0 |
| 20260509080040 | 39 | 0 | 0.0 | 2.0 | 0.00 | 0.00 | 0.00 | 86 | 1012.2 |
| 20260509080025 | 39 | 90 | 0.0 | 2.0 | 0.00 | 0.00 | 0.00 | 86 | 1012.8 |
| 20260509074551 | 38 | 0 | 0.0 | 2.0 | 0.00 | 0.00 | 0.00 | 87 | 1012.2 |
| 20260509074523 | 38 | 89 | 0.0 | 2.0 | 0.00 | 0.00 | 0.00 | 87 | 1012.8 |
| 20260509073050 | 38 | 148 | 0.0 | 2.0 | 0.00 | 0.00 | 0.00 | 88 | 1012.2 |
| 20260509073022 | 38 | 148 | 0.0 | 2.0 | 0.00 | 0.00 | 0.00 | 88 | 1012.7 |
| 20260509071550 | 37 | 0 | 0.0 | 3.0 | 0.00 | 0.00 | 0.00 | 90 | 1012.3 |
| 20260509071526 | 37 | 231 | 0.0 | 3.0 | 0.00 | 0.00 | 0.00 | 90 | 1012.8 |
| 20260509070051 | 36 | 252 | 0.0 | 2.0 | 0.00 | 0.00 | 0.00 | 90 | 1012.2 |
| 20260509070023 | 36 | 252 | 0.0 | 2.0 | 0.00 | 0.00 | 0.00 | 90 | 1012.7 |
| 20260509064542 | 36 | 252 | 0.0 | 2.0 | 0.00 | 0.00 | 0.00 | 89 | 1012.2 |
| 20260509064530 | 36 | 252 | 0.0 | 2.0 | 0.00 | 0.00 | 0.00 | 89 | 1012.7 |
| 20260509063058 | 36 | 252 | 1.0 | 3.0 | 0.00 | 0.00 | 0.00 | 90 | 1012.4 |
| 20260509063023 | 36 | 252 | 1.0 | 3.0 | 0.00 | 0.00 | 0.00 | 90 | 1012.9 |
| 20260509061609 | 35 | 0 | 0.0 | 2.0 | 0.00 | 0.00 | 0.00 | 90 | 1012.7 |
| 20260509061536 | 35 | 280 | 0.0 | 2.0 | 0.00 | 0.00 | 0.00 | 90 | 1013.0 |
| 20260509060056 | 35 | 281 | 0.0 | 2.0 | 0.00 | 0.00 | 0.00 | 90 | 1012.6 |
| 20260509060022 | 35 | 281 | 0.0 | 2.0 | 0.00 | 0.00 | 0.00 | 90 | 1013.0 |
| 20260509054543 | 35 | 235 | 0.0 | 2.0 | 0.00 | 0.00 | 0.00 | 89 | 1012.9 |
| 20260509054526 | 35 | 235 | 0.0 | 2.0 | 0.00 | 0.00 | 0.00 | 89 | 1013.5 |
| 20260509053049 | 36 | 0 | 0.0 | 2.0 | 0.00 | 0.00 | 0.00 | 88 | 1013.1 |
| 20260509053041 | 36 | 235 | 0.0 | 2.0 | 0.00 | 0.00 | 0.00 | 88 | 1013.4 |
| 20260509051550 | 36 | 235 | 0.0 | 1.0 | 0.00 | 0.00 | 0.00 | 88 | 1012.9 |
| 20260509051523 | 36 | 235 | 0.0 | 1.0 | 0.00 | 0.00 | 0.00 | 88 | 1013.5 |
| 20260509050039 | 37 | 0 | 0.0 | 1.0 | 0.00 | 0.00 | 0.00 | 86 | 1013.2 |
| 20260509050025 | 37 | 235 | 0.0 | 1.0 | 0.00 | 0.00 | 0.00 | 86 | 1013.6 |
| 20260509044550 | 38 | 235 | 0.0 | 2.0 | 0.00 | 0.00 | 0.00 | 86 | 1013.1 |
| 20260509044527 | 38 | 235 | 0.0 | 2.0 | 0.00 | 0.00 | 0.00 | 86 | 1013.5 |